IL-0001 weather

Kefar Gallim Highway Strip
Haifa District, Israel

Public forecast

Using degrees Celsius for public forecast. Weather courtesy of forecast.io.

METAR (pilot weather report)

Closest report is Haifa International Airport, 5.4 nm (9.9 km) ENE. Retrieved 2019/08/19 16:50 UTC (47 minutes ago):

LLHA 191650Z 31005KT 9999 FEW035 28/20 Q1009

TAF (pilot weather forecast)

Closest forecast is Haifa International Airport, 5.4 nm (9.9 km) ENE. Retrieved 2019/08/19 12:00 UTC (6 hours ago):

TAF LLHA 191108Z 1912/2012 27010KT 9999 FEW040 BECMG 1916/1918 VRB03KT SCT030 BECMG 2007/2009 28010KT FEW040 TX31/1912Z TN23/2003Z